CST,Max TemperatureF,Mean TemperatureF,Min TemperatureF,Max Dew PointF,MeanDew PointF,Min DewpointF,Max Humidity, Mean Humidity, Min Humidity, Max Sea Level PressureIn, Mean Sea Level PressureIn, Min Sea Level PressureIn, Max VisibilityMiles, Mean VisibilityMiles, Min VisibilityMiles, Max Wind SpeedMPH, Mean Wind SpeedMPH, Max Gust SpeedMPH,PrecipitationIn, CloudCover, Events, WindDirDegrees
2011-12-1,23,14,3,19,8,0,93,71,53,30.37,30.30,30.13,10,10,10,10,5,17,0.00,2,,328
2011-12-2,28,14,1,16,7,-2,86,71,43,30.25,30.08,29.90,10,10,10,18,7,26,0.00,1,,192
2011-12-3,30,27,24,25,20,16,80,71,59,29.94,29.90,29.85,10,10,10,18,10,25,0.00,4,,224
2011-12-4,24,16,8,19,10,5,86,75,58,30.22,30.05,29.91,10,9,3,9,5,,0.00,5,Snow,359
2011-12-5,10,6,1,5,3,-2,92,80,73,30.45,30.40,30.32,10,7,2,9,1,,0.00,7,Snow,324
2011-12-6,17,2,-14,5,-5,-20,85,69,49,30.39,30.12,29.78,10,10,7,17,4,26,0.00,1,,205
2011-12-7,28,22,15,18,11,7,80,63,47,29.87,29.80,29.70,10,10,10,15,9,21,0.00,5,Snow,265
2011-12-8,12,9,6,5,0,-6,79,64,48,29.94,29.88,29.84,10,9,2,21,9,29,0.00,3,Snow,263
2011-12-9,8,2,-4,-4,-7,-9,85,68,48,30.15,30.06,29.96,10,10,10,16,7,23,0.00,0,,258
2011-12-10,23,10,-2,10,3,-8,85,68,58,30.14,30.04,29.98,10,10,1,8,4,,0.00,6,Snow,204
2011-12-11,39,26,12,21,18,10,93,70,49,29.92,29.84,29.80,10,10,5,13,5,20,0.00,0,,214
2011-12-12,30,28,24,28,27,19,100,92,80,30.26,30.14,30.04,10,4,2,6,2,,0.00,8,,33
2011-12-13,30,26,21,27,22,18,93,89,80,30.34,30.30,30.20,10,9,7,8,1,,0.00,8,,136
2011-12-14,33,32,32,30,30,30,93,89,87,30.08,29.86,29.64,10,7,2,8,4,,0.00,8,Rain-Snow,145
2011-12-15,32,24,17,30,21,10,100,86,73,30.05,29.66,29.51,10,5,1,21,9,34,0.01,8,Snow,293
2011-12-16,14,8,0,5,2,-4,92,75,53,30.34,30.29,30.22,10,10,10,7,2,,0.00,4,Snow,329
2011-12-17,23,8,-7,18,8,-11,93,84,78,30.22,30.02,29.91,10,8,1,10,4,,0.00,6,Snow,224
2011-12-18,37,28,19,25,20,16,86,73,60,29.99,29.71,29.48,10,10,10,14,5,21,0.00,4,,203
2011-12-19,30,24,17,27,18,12,86,79,74,30.19,29.98,29.65,10,10,7,20,10,29,0.00,8,Snow,317
2011-12-20,32,24,15,16,13,10,86,69,41,30.15,29.85,29.60,10,10,10,20,11,28,0.00,5,,220
2011-12-21,28,24,21,23,19,16,86,76,69,29.80,29.61,29.53,10,10,10,13,6,20,0.00,5,,277
2011-12-22,23,16,10,14,7,3,79,67,58,30.21,30.15,29.97,10,10,7,16,7,20,0.00,7,Snow,309
2011-12-23,23,20,17,19,15,10,93,80,68,30.09,29.93,29.83,10,7,1,10,6,,0.00,8,Snow,177
2011-12-24,30,24,19,19,18,16,86,78,64,30.04,29.93,29.81,10,10,10,14,4,18,0.00,5,,213
2011-12-25,30,28,26,27,24,21,93,80,69,30.11,29.96,29.73,10,8,2,16,10,25,0.00,8,Snow,293
2011-12-26,42,35,28,23,19,12,74,51,39,29.94,29.60,29.39,10,10,10,22,12,32,0.00,1,,215
2011-12-27,33,17,1,30,5,-8,87,67,41,30.01,29.85,29.51,10,10,3,18,11,30,0.00,5,Snow,334
2011-12-28,17,6,-4,12,2,-9,86,78,71,29.99,29.82,29.66,10,9,1,15,3,21,0.00,5,Snow,152
2011-12-29,21,19,17,19,18,16,100,89,80,29.62,29.53,29.47,10,8,2,8,2,,0.02,8,Snow,324
2011-12-30,19,16,14,16,14,12,93,90,86,29.78,29.70,29.64,10,10,5,6,1,,0.00,7,Snow,75
2011-12-31,28,22,17,25,20,16,100,89,80,29.77,29.69,29.61,10,9,1,9,3,,0.01,7,Snow,147